createdAt,value
2018-09-20T00:01:56.714Z,24.23
2018-09-20T00:04:26.265Z,8.60
2018-09-20T00:06:55.201Z,9.90
2018-09-20T00:09:23.988Z,20.23
2018-09-20T00:11:52.814Z,8.47
2018-09-20T00:14:21.574Z,12.40
2018-09-20T00:16:51.144Z,13.50
2018-09-20T00:19:20.339Z,13.20
2018-09-20T00:21:49.419Z,8.80
2018-09-20T00:24:19.086Z,8.97
2018-09-20T00:26:47.966Z,8.73
2018-09-20T00:29:18.089Z,11.00
2018-09-20T00:31:46.613Z,9.47
2018-09-20T00:34:15.431Z,9.60
2018-09-20T00:36:44.997Z,8.23
2018-09-20T00:39:14.514Z,12.03
2018-09-20T00:41:43.664Z,8.30
2018-09-20T00:44:12.873Z,8.73
2018-09-20T00:46:41.990Z,9.70
2018-09-20T00:49:10.945Z,9.23
2018-09-20T00:51:40.426Z,8.27
2018-09-20T00:54:09.224Z,10.20
2018-09-20T00:56:38.630Z,11.23
2018-09-20T00:59:07.605Z,7.93
2018-09-20T01:01:36.451Z,11.67
2018-09-20T01:04:05.288Z,9.90
2018-09-20T01:06:34.925Z,9.73
2018-09-20T01:09:05.120Z,9.57
2018-09-20T01:11:33.996Z,8.37
2018-09-20T01:14:03.324Z,8.87
2018-09-20T01:16:32.565Z,13.67
2018-09-20T01:19:01.319Z,14.07
2018-09-20T01:21:30.044Z,9.37
2018-09-20T01:23:58.982Z,9.43
2018-09-20T01:26:27.741Z,9.47
2018-09-20T01:28:56.590Z,8.70
2018-09-20T01:31:25.377Z,9.17
2018-09-20T01:33:54.104Z,10.43
2018-09-20T01:36:23.359Z,8.47
2018-09-20T01:38:52.735Z,9.13
2018-09-20T01:41:21.736Z,8.80
2018-09-20T01:43:51.164Z,8.90
2018-09-20T01:46:19.777Z,12.13
2018-09-20T01:48:48.453Z,9.03
2018-09-20T01:51:17.587Z,9.67
2018-09-20T01:53:46.940Z,8.67
2018-09-20T01:56:16.736Z,11.20
2018-09-20T01:58:46.516Z,8.10
2018-09-20T02:01:15.500Z,15.60
2018-09-20T02:03:44.400Z,9.43
2018-09-20T02:06:13.912Z,9.40
2018-09-20T02:08:42.916Z,9.03
2018-09-20T02:11:11.729Z,9.20
2018-09-20T02:13:40.332Z,11.63
2018-09-20T02:16:09.989Z,13.30
2018-09-20T02:18:38.661Z,10.98
2018-09-20T02:21:07.572Z,11.73
2018-09-20T02:23:37.542Z,8.60
2018-09-20T02:26:06.417Z,10.63
2018-09-20T02:28:36.021Z,9.93
2018-09-20T02:31:05.235Z,10.00
2018-09-20T02:33:34.659Z,16.82
2018-09-20T02:36:03.285Z,16.43
2018-09-20T02:38:32.775Z,10.40
2018-09-20T02:41:02.211Z,10.07
2018-09-20T02:43:31.138Z,11.33
2018-09-20T02:46:00.626Z,13.13
2018-09-20T02:48:30.082Z,13.88
2018-09-20T02:50:59.190Z,12.93
2018-09-20T02:53:28.216Z,10.07
2018-09-20T02:55:57.630Z,9.53
2018-09-20T02:58:26.744Z,9.57
2018-09-20T03:00:55.696Z,9.10
2018-09-20T03:03:25.119Z,9.23
2018-09-20T03:05:53.707Z,9.13
2018-09-20T03:08:22.552Z,14.67
2018-09-20T03:10:51.705Z,8.13
2018-09-20T03:13:20.997Z,13.97
2018-09-20T03:15:49.875Z,10.13
2018-09-20T03:18:20.373Z,11.53
2018-09-20T03:20:49.067Z,10.80
2018-09-20T03:23:17.906Z,9.57
2018-09-20T03:25:46.819Z,9.57
2018-09-20T03:28:15.537Z,8.60
2018-09-20T03:30:44.539Z,11.83
2018-09-20T03:33:13.811Z,8.97
2018-09-20T03:35:43.013Z,9.50
2018-09-20T03:38:12.436Z,9.63
2018-09-20T03:40:41.355Z,12.37
2018-09-20T03:43:11.035Z,35.00
2018-09-20T03:45:39.972Z,10.30
2018-09-20T03:48:09.127Z,11.60
2018-09-20T03:52:02.279Z,9.27
2018-09-20T03:54:31.430Z,10.00
2018-09-20T03:57:00.357Z,11.50
2018-09-20T03:59:30.172Z,10.30
2018-09-20T04:02:00.270Z,9.87
2018-09-20T04:04:28.961Z,9.37
2018-09-20T04:06:57.640Z,9.83
2018-09-20T04:09:26.759Z,8.40
2018-09-20T04:14:55.496Z,9.90
2018-09-20T04:17:24.667Z,9.40
2018-09-20T04:19:54.332Z,10.50
2018-09-20T04:22:23.112Z,8.97
2018-09-20T04:24:52.468Z,10.07
2018-09-20T04:27:21.247Z,9.93
2018-09-20T04:29:50.015Z,9.80
2018-09-20T04:32:19.215Z,10.83
2018-09-20T04:34:47.981Z,10.00
2018-09-20T04:37:17.416Z,12.15
2018-09-20T04:39:46.941Z,10.97
2018-09-20T04:42:15.841Z,10.53
2018-09-20T04:44:44.766Z,10.97
2018-09-20T04:47:14.080Z,8.83
2018-09-20T04:49:42.772Z,9.50
2018-09-20T04:52:12.087Z,9.10
2018-09-20T04:54:41.113Z,9.28
2018-09-20T04:57:10.193Z,8.60
2018-09-20T04:59:39.298Z,8.10
2018-09-20T05:02:08.078Z,9.03
2018-09-20T05:04:37.072Z,9.97
2018-09-20T05:07:05.969Z,8.67
2018-09-20T05:09:35.458Z,9.13
2018-09-20T05:12:04.603Z,11.50
2018-09-20T05:14:34.013Z,10.67
2018-09-20T05:17:03.484Z,10.37
2018-09-20T05:19:32.661Z,14.47
2018-09-20T05:22:06.472Z,9.50
2018-09-20T05:24:35.484Z,13.37
2018-09-20T05:27:04.918Z,12.33
2018-09-20T05:29:34.026Z,13.33
2018-09-20T05:32:03.421Z,9.77
2018-09-20T05:34:32.178Z,10.27
2018-09-20T05:37:01.769Z,9.47
2018-09-20T05:39:30.649Z,8.57
2018-09-20T05:41:59.452Z,10.20
2018-09-20T05:44:28.481Z,8.50
2018-09-20T05:46:57.770Z,10.90
2018-09-20T05:49:27.063Z,8.93
2018-09-20T05:51:56.017Z,8.53
2018-09-20T05:54:24.897Z,13.23
2018-09-20T05:56:53.681Z,13.73
2018-09-20T05:59:22.673Z,10.90
2018-09-20T06:01:52.283Z,10.93
2018-09-20T06:04:21.283Z,12.87
2018-09-20T06:06:50.073Z,8.57
2018-09-20T06:10:43.235Z,17.20
2018-09-20T06:13:12.092Z,8.37
2018-09-20T06:15:41.057Z,8.63
2018-09-20T06:18:10.152Z,10.20
2018-09-20T06:20:39.187Z,7.60
2018-09-20T06:23:08.756Z,11.87
2018-09-20T06:25:37.951Z,12.37
2018-09-20T06:28:08.588Z,7.20
2018-09-20T06:30:37.721Z,12.73
2018-09-20T06:33:06.697Z,10.00
2018-09-20T06:35:35.712Z,7.40
2018-09-20T06:38:05.077Z,8.10
2018-09-20T06:40:34.722Z,9.07
2018-09-20T06:43:04.309Z,10.60
2018-09-20T06:45:33.674Z,7.05
2018-09-20T06:48:03.018Z,8.47
2018-09-20T06:50:32.143Z,14.60
2018-09-20T06:53:00.888Z,9.03
2018-09-20T06:55:29.594Z,14.80
2018-09-20T06:57:58.553Z,7.27
2018-09-20T07:00:27.277Z,10.70
2018-09-20T07:02:56.042Z,9.57
2018-09-20T07:05:24.824Z,14.73
2018-09-20T07:07:53.744Z,15.13
2018-09-20T07:10:22.583Z,8.17
2018-09-20T07:12:52.241Z,12.93
2018-09-20T07:15:21.650Z,7.93
2018-09-20T07:17:50.648Z,8.07
2018-09-20T07:20:20.088Z,10.27
2018-09-20T07:22:49.142Z,10.30
2018-09-20T07:25:18.149Z,8.23
2018-09-20T07:27:46.764Z,31.97
2018-09-20T07:30:16.387Z,10.80
2018-09-20T07:32:45.999Z,7.10
2018-09-20T07:35:14.918Z,8.77
2018-09-20T07:37:43.551Z,10.43
2018-09-20T07:40:12.385Z,7.43
2018-09-20T07:42:41.100Z,6.63
2018-09-20T07:45:09.732Z,6.63
2018-09-20T07:47:38.448Z,6.13
2018-09-20T07:50:08.648Z,7.27
2018-09-20T07:52:37.776Z,7.13
2018-09-20T07:55:06.642Z,10.20
2018-09-20T07:57:35.448Z,6.47
2018-09-20T08:00:04.439Z,6.00
2018-09-20T08:02:33.127Z,6.83
2018-09-20T08:05:02.106Z,9.47
2018-09-20T08:07:30.824Z,7.50
2018-09-20T08:09:59.398Z,6.00
2018-09-20T08:12:28.706Z,5.30
2018-09-20T08:14:58.447Z,6.70
2018-09-20T08:17:28.029Z,6.33
2018-09-20T08:19:57.222Z,5.60
2018-09-20T08:22:26.068Z,5.42
2018-09-20T08:24:55.711Z,6.12
2018-09-20T08:27:25.009Z,5.20
2018-09-20T08:29:53.987Z,3.90
2018-09-20T08:32:22.662Z,3.90
2018-09-20T08:34:51.667Z,3.90
2018-09-20T08:37:20.910Z,4.83
2018-09-20T08:39:50.213Z,3.62
2018-09-20T08:42:19.316Z,4.45
2018-09-20T08:44:48.602Z,4.83
2018-09-20T08:47:18.037Z,3.85
2018-09-20T08:49:47.052Z,3.87
2018-09-20T08:52:16.308Z,2.87
2018-09-20T08:54:45.573Z,3.52
2018-09-20T08:57:14.466Z,2.72
2018-09-20T08:59:43.680Z,3.42
2018-09-20T09:02:12.847Z,4.08
2018-09-20T09:04:41.959Z,4.33
2018-09-20T09:07:11.519Z,7.63
2018-09-20T09:09:40.748Z,2.87
2018-09-20T09:12:10.226Z,2.57
2018-09-20T09:14:40.247Z,5.33
2018-09-20T09:17:11.696Z,11.43
2018-09-20T09:19:40.873Z,2.27
2018-09-20T09:22:10.011Z,3.52
2018-09-20T09:24:39.049Z,5.12
2018-09-20T09:27:09.273Z,4.42
2018-09-20T09:29:38.248Z,2.05
2018-09-20T09:32:07.299Z,1.80
2018-09-20T09:34:36.498Z,3.00
2018-09-20T09:37:06.306Z,1.92
2018-09-20T09:39:35.328Z,2.10
2018-09-20T09:42:05.016Z,4.75
2018-09-20T09:44:33.852Z,3.05
2018-09-20T09:47:03.017Z,2.20
2018-09-20T09:49:33.222Z,1.98
2018-09-20T09:52:02.460Z,3.80
2018-09-20T09:54:32.671Z,1.65
2018-09-20T09:57:01.884Z,1.95
2018-09-20T09:59:31.194Z,2.55
2018-09-20T10:02:00.489Z,2.37
2018-09-20T10:04:30.028Z,2.53
2018-09-20T10:06:59.889Z,1.32
2018-09-20T10:09:29.008Z,4.92
2018-09-20T10:11:58.828Z,1.42
2018-09-20T10:14:28.422Z,1.22
2018-09-20T10:16:57.653Z,0.80
2018-09-20T10:19:26.960Z,1.30
2018-09-20T10:21:56.117Z,2.27
2018-09-20T10:24:25.269Z,2.00
2018-09-20T10:26:54.493Z,4.63
2018-09-20T10:29:23.688Z,3.17
2018-09-20T10:31:53.872Z,1.10
2018-09-20T10:34:23.563Z,1.83
2018-09-20T10:36:52.509Z,3.08
2018-09-20T10:39:21.903Z,1.02
2018-09-20T10:41:51.968Z,1.57
2018-09-20T10:44:21.108Z,3.67
2018-09-20T10:46:50.539Z,3.03
2018-09-20T10:49:19.634Z,2.08
2018-09-20T10:51:48.853Z,3.37
2018-09-20T10:54:18.124Z,2.27
2018-09-20T10:56:47.160Z,2.60
2018-09-20T10:59:16.285Z,1.75
2018-09-20T11:01:45.513Z,0.82
2018-09-20T11:04:15.028Z,2.55
2018-09-20T11:06:44.027Z,0.97
2018-09-20T11:09:12.815Z,1.12
2018-09-20T11:11:41.585Z,1.70
2018-09-20T11:14:10.547Z,1.10
2018-09-20T11:16:39.934Z,1.12
2018-09-20T11:19:08.583Z,0.95
2018-09-20T11:21:37.426Z,4.03
2018-09-20T11:24:06.510Z,2.35
2018-09-20T11:26:35.369Z,1.45
2018-09-20T11:29:04.157Z,1.60
2018-09-20T11:31:32.773Z,10.35
2018-09-20T11:34:01.569Z,2.33
2018-09-20T11:36:30.719Z,2.85
2018-09-20T11:38:59.976Z,0.90
2018-09-20T11:41:29.255Z,0.80
2018-09-20T11:43:59.020Z,0.80
2018-09-20T11:46:28.767Z,1.10
2018-09-20T11:48:57.986Z,1.12
2018-09-20T11:51:27.035Z,1.67
2018-09-20T11:53:56.009Z,0.50
2018-09-20T11:56:25.005Z,2.67
2018-09-20T11:58:54.700Z,0.93
2018-09-20T12:01:24.559Z,2.77
2018-09-20T12:03:53.405Z,0.50
2018-09-20T12:06:22.393Z,0.82
2018-09-20T12:08:51.541Z,6.17
2018-09-20T12:11:20.947Z,0.75
2018-09-20T12:13:50.199Z,1.27
2018-09-20T12:16:19.998Z,1.43
2018-09-20T12:18:49.214Z,0.95
2018-09-20T12:21:18.561Z,0.62
2018-09-20T12:23:48.029Z,0.78
2018-09-20T12:26:17.238Z,7.67
2018-09-20T12:28:46.544Z,1.60
2018-09-20T12:31:15.550Z,1.98
2018-09-20T12:33:44.894Z,0.55
2018-09-20T12:36:14.129Z,0.80
2018-09-20T12:38:43.374Z,1.30
2018-09-20T12:41:13.269Z,1.40
2018-09-20T12:43:42.799Z,2.20
2018-09-20T12:46:11.999Z,1.63
2018-09-20T12:48:43.038Z,1.80
2018-09-20T12:51:12.585Z,2.42
2018-09-20T12:53:41.490Z,2.02
2018-09-20T12:56:10.800Z,4.00
2018-09-20T12:58:42.933Z,1.80
2018-09-20T13:01:12.090Z,1.37
2018-09-20T13:03:41.283Z,0.85
2018-09-20T13:06:11.480Z,15.30
2018-09-20T13:08:40.775Z,1.50
2018-09-20T13:11:09.849Z,3.20
2018-09-20T13:13:39.239Z,2.30
2018-09-20T13:16:08.524Z,2.08
2018-09-20T13:18:38.578Z,2.27
2018-09-20T13:21:07.759Z,1.37
2018-09-20T13:23:37.295Z,0.80
2018-09-20T13:26:06.184Z,1.65
2018-09-20T13:28:34.899Z,2.67
2018-09-20T13:31:03.945Z,3.77
2018-09-20T13:33:32.999Z,1.27
2018-09-20T13:36:02.180Z,1.85
2018-09-20T13:38:31.431Z,0.93
2018-09-20T13:41:34.619Z,0.80
2018-09-20T13:44:03.299Z,2.77
2018-09-20T13:46:32.109Z,2.05
2018-09-20T13:49:02.063Z,1.05
2018-09-20T13:51:31.403Z,2.83
2018-09-20T13:54:02.141Z,1.65
2018-09-20T13:56:31.161Z,2.27
2018-09-20T13:59:00.463Z,2.62
2018-09-20T14:01:29.614Z,4.85
2018-09-20T14:03:58.757Z,2.35
2018-09-20T14:06:28.126Z,13.63
2018-09-20T14:08:57.312Z,2.55
2018-09-20T14:11:26.373Z,6.17
2018-09-20T14:13:55.599Z,1.90
2018-09-20T14:16:24.855Z,4.00
2018-09-20T14:18:54.090Z,3.10
2018-09-20T14:21:23.330Z,3.30
2018-09-20T14:23:52.663Z,4.10
2018-09-20T14:26:21.647Z,3.17
2018-09-20T14:28:51.006Z,5.13
2018-09-20T14:31:20.120Z,2.83
2018-09-20T14:33:48.982Z,3.30
2018-09-20T14:36:18.585Z,4.57
2018-09-20T14:38:47.723Z,5.53
2018-09-20T14:41:16.638Z,3.63
2018-09-20T14:43:45.375Z,6.03
2018-09-20T14:46:14.464Z,6.13
2018-09-20T14:48:43.303Z,3.70
2018-09-20T14:51:13.889Z,4.70
2018-09-20T14:53:43.029Z,6.00
2018-09-20T14:56:12.219Z,6.20
2018-09-20T14:58:41.764Z,3.87
2018-09-20T15:01:10.938Z,3.37
2018-09-20T15:03:40.025Z,4.43
2018-09-20T15:06:09.385Z,11.07
2018-09-20T15:08:38.579Z,3.50
2018-09-20T15:11:07.731Z,4.10
2018-09-20T15:13:37.169Z,9.33
2018-09-20T15:16:06.105Z,6.43
2018-09-20T15:18:35.118Z,3.83
2018-09-20T15:21:04.731Z,5.87
2018-09-20T15:23:33.849Z,4.20
2018-09-20T15:26:03.046Z,4.07
2018-09-20T15:28:31.890Z,3.83
2018-09-20T15:31:02.601Z,9.80
2018-09-20T15:33:31.714Z,5.73
2018-09-20T15:36:00.975Z,3.57
2018-09-20T15:38:29.681Z,8.93
2018-09-20T15:40:59.290Z,4.47
2018-09-20T15:43:28.559Z,13.20
2018-09-20T15:45:58.658Z,6.63
2018-09-20T15:48:28.046Z,5.70
2018-09-20T15:50:57.212Z,4.23
2018-09-20T15:53:26.267Z,5.33
2018-09-20T15:55:56.000Z,4.20
2018-09-20T15:58:25.028Z,4.13
2018-09-20T16:00:54.215Z,6.10
2018-09-20T16:03:23.052Z,4.17
2018-09-20T16:05:51.786Z,5.00
2018-09-20T16:08:20.817Z,6.57
2018-09-20T16:10:50.082Z,4.80
2018-09-20T16:13:20.189Z,4.67
2018-09-20T16:15:49.296Z,5.20
2018-09-20T16:18:18.621Z,8.60
2018-09-20T16:20:47.470Z,5.17
2018-09-20T16:23:16.323Z,5.20
2018-09-20T16:25:45.478Z,10.60
2018-09-20T16:31:33.511Z,5.97
2018-09-20T16:34:20.401Z,6.20
2018-09-20T16:37:17.674Z,6.50
2018-09-20T16:42:17.672Z,5.30
2018-09-20T16:47:14.776Z,19.30
2018-09-20T16:49:43.481Z,5.40
2018-09-20T16:52:12.413Z,7.10
2018-09-20T16:59:37.747Z,16.20
2018-09-20T17:04:34.799Z,7.20
2018-09-20T17:07:03.798Z,11.30
2018-09-20T17:12:00.780Z,21.60
2018-09-20T17:14:30.590Z,12.50
2018-09-20T17:16:59.556Z,13.07
2018-09-20T17:21:56.567Z,8.70
2018-09-20T17:24:26.413Z,13.60
2018-09-20T17:26:55.237Z,18.20
2018-09-20T17:29:24.708Z,7.33
2018-09-20T17:31:53.650Z,6.57
2018-09-20T17:34:23.251Z,9.13
2018-09-20T17:36:53.622Z,14.50
2018-09-20T17:39:24.260Z,9.77
2018-09-20T17:41:54.947Z,7.90
2018-09-20T17:56:47.652Z,14.55
2018-09-20T17:59:17.417Z,16.65
2018-09-20T18:01:46.780Z,17.87
2018-09-20T18:04:15.715Z,13.40
2018-09-20T18:06:46.132Z,29.30
2018-09-20T18:09:15.117Z,30.37
2018-09-20T18:11:44.096Z,18.63
2018-09-20T18:14:13.847Z,12.23
2018-09-20T18:16:42.927Z,21.23
2018-09-20T18:19:12.040Z,19.10
2018-09-20T18:21:41.202Z,22.70
2018-09-20T18:24:10.322Z,12.40
2018-09-20T18:26:39.578Z,20.30
2018-09-20T18:29:08.895Z,16.12
2018-09-20T18:31:38.103Z,12.25
2018-09-20T18:34:07.578Z,10.53
2018-09-20T18:36:36.852Z,15.03
2018-09-20T18:39:08.788Z,10.63
2018-09-20T18:41:37.884Z,14.97
2018-09-20T18:44:07.321Z,25.47
2018-09-20T18:46:36.386Z,20.40
2018-09-20T18:49:05.837Z,18.57
2018-09-20T18:51:34.869Z,15.90
2018-09-20T18:54:05.025Z,13.53
2018-09-20T18:56:34.387Z,15.27
2018-09-20T18:59:03.508Z,7.67
2018-09-20T19:01:32.776Z,15.87
2018-09-20T19:04:01.481Z,12.53
2018-09-20T19:06:31.218Z,14.15
2018-09-20T19:09:00.412Z,13.07
2018-09-20T19:11:29.786Z,10.00
2018-09-20T19:16:27.807Z,10.60
2018-09-20T19:18:57.316Z,9.15
2018-09-20T19:21:26.432Z,8.57
2018-09-20T19:23:55.268Z,10.77
2018-09-20T19:26:23.947Z,7.25
2018-09-20T19:28:53.302Z,9.30
2018-09-20T19:31:22.401Z,9.17
2018-09-20T19:36:19.407Z,7.65
2018-09-20T19:38:49.052Z,9.57
2018-09-20T19:41:18.249Z,8.60
2018-09-20T19:43:47.507Z,7.37
2018-09-20T19:46:16.651Z,10.03
2018-09-20T19:48:45.612Z,7.43
2018-09-20T19:51:15.189Z,8.37
2018-09-20T19:53:44.263Z,13.23
2018-09-20T19:56:13.583Z,13.13
2018-09-20T19:58:42.795Z,15.93
2018-09-20T20:01:12.575Z,11.60
2018-09-20T20:03:42.355Z,8.20
2018-09-20T20:06:11.501Z,7.40
2018-09-20T20:08:41.509Z,10.67
2018-09-20T20:11:11.105Z,8.03
2018-09-20T20:13:40.308Z,7.97
2018-09-20T20:16:09.355Z,8.63
2018-09-20T20:18:38.588Z,8.63
2018-09-20T20:21:06.947Z,9.70
2018-09-20T20:23:36.029Z,7.90
2018-09-20T20:26:05.265Z,11.47
2018-09-20T20:28:34.544Z,8.40
2018-09-20T20:31:03.687Z,9.93
2018-09-20T20:33:32.875Z,7.47
2018-09-20T20:36:02.813Z,9.65
2018-09-20T20:38:31.557Z,8.20
2018-09-20T20:41:00.519Z,9.03
2018-09-20T20:43:29.891Z,7.80
2018-09-20T20:45:59.122Z,10.40
2018-09-20T20:48:28.274Z,8.90
2018-09-20T20:50:56.924Z,9.37
2018-09-20T20:53:25.724Z,9.23
2018-09-20T20:55:54.605Z,11.87
2018-09-20T20:58:24.101Z,8.83
2018-09-20T21:00:53.589Z,9.10
2018-09-20T21:03:22.651Z,15.60
2018-09-20T21:05:52.105Z,10.87
2018-09-20T21:08:20.983Z,14.63
2018-09-20T21:10:50.243Z,10.13
2018-09-20T21:13:19.104Z,13.90
2018-09-20T21:15:47.872Z,16.62
2018-09-20T21:18:17.002Z,12.10
2018-09-20T21:20:48.176Z,8.67
2018-09-20T21:23:17.320Z,14.07
2018-09-20T21:25:46.457Z,12.20
2018-09-20T21:28:16.095Z,11.90
2018-09-20T21:30:45.141Z,8.05
2018-09-20T21:33:14.217Z,10.03
2018-09-20T21:35:43.190Z,12.53
2018-09-20T21:38:11.749Z,7.85
2018-09-20T21:40:40.520Z,16.10
2018-09-20T21:43:10.092Z,9.97
2018-09-20T21:45:38.861Z,8.40
2018-09-20T21:48:07.861Z,9.90
2018-09-20T21:50:36.823Z,11.20
2018-09-20T21:53:06.031Z,8.60
2018-09-20T21:55:35.593Z,8.53
2018-09-20T21:58:04.466Z,8.53
2018-09-20T22:00:33.673Z,10.95
2018-09-20T22:03:04.272Z,11.83
2018-09-20T22:05:34.480Z,8.40
2018-09-20T22:08:03.323Z,9.27
2018-09-20T22:10:32.661Z,8.27
2018-09-20T22:13:01.721Z,9.33
2018-09-20T22:15:31.927Z,9.40
2018-09-20T22:18:01.268Z,8.07
2018-09-20T22:20:31.294Z,8.57
2018-09-20T22:23:01.662Z,9.27
2018-09-20T22:25:30.914Z,8.50
2018-09-20T22:27:59.832Z,9.27
2018-09-20T22:30:28.609Z,8.33
2018-09-20T22:32:57.542Z,8.83
2018-09-20T22:35:26.282Z,9.77
2018-09-20T22:37:56.872Z,12.87
2018-09-20T22:40:25.798Z,9.13
2018-09-20T22:42:54.631Z,8.40
2018-09-20T22:45:23.756Z,8.43
2018-09-20T22:47:52.527Z,20.77
2018-09-20T22:50:21.279Z,9.83
2018-09-20T22:52:51.254Z,10.00
2018-09-20T22:55:20.467Z,10.13
2018-09-20T22:57:49.781Z,9.27
2018-09-20T23:00:24.093Z,8.83
2018-09-20T23:02:54.435Z,9.30
2018-09-20T23:05:23.177Z,8.70
2018-09-20T23:07:52.079Z,9.60
2018-09-20T23:10:21.011Z,8.40
2018-09-20T23:12:49.912Z,9.20
2018-09-20T23:15:19.193Z,9.20
2018-09-20T23:17:47.920Z,10.60
2018-09-20T23:20:17.422Z,7.70
2018-09-20T23:22:46.859Z,8.87
2018-09-20T23:25:17.082Z,10.87
2018-09-20T23:27:45.834Z,11.33
2018-09-20T23:30:14.593Z,9.98
2018-09-20T23:32:43.668Z,9.20
2018-09-20T23:35:13.107Z,11.20
2018-09-20T23:37:42.154Z,11.93
2018-09-20T23:40:11.316Z,9.17
2018-09-20T23:42:41.528Z,10.37
2018-09-20T23:45:11.238Z,12.23
2018-09-20T23:47:40.018Z,18.55
2018-09-20T23:50:09.261Z,15.67
2018-09-20T23:52:38.458Z,17.37
2018-09-20T23:55:07.708Z,15.43
2018-09-20T23:57:36.476Z,10.43
